sensor_id;sensor_type;location;lat;lon;timestamp;temperature;humidity
67358;HTU21D;54240;51.096;5.878;2022-10-20T00:00:29;12.13;118.99
67358;HTU21D;54240;51.096;5.878;2022-10-20T00:02:54;12.11;118.99
67358;HTU21D;54240;51.096;5.878;2022-10-20T00:05:20;12.06;118.99
67358;HTU21D;54240;51.096;5.878;2022-10-20T00:07:46;12.06;118.99
67358;HTU21D;54240;51.096;5.878;2022-10-20T00:10:12;12.03;118.99
67358;HTU21D;54240;51.096;5.878;2022-10-20T00:12:37;12.00;118.99
67358;HTU21D;54240;51.096;5.878;2022-10-20T00:15:04;11.98;118.99
67358;HTU21D;54240;51.096;5.878;2022-10-20T00:17:29;11.94;118.99
67358;HTU21D;54240;51.096;5.878;2022-10-20T00:19:55;11.92;118.99
67358;HTU21D;54240;51.096;5.878;2022-10-20T00:22:23;11.81;118.99
67358;HTU21D;54240;51.096;5.878;2022-10-20T00:24:50;11.86;118.99
67358;HTU21D;54240;51.096;5.878;2022-10-20T00:27:16;11.86;118.99
67358;HTU21D;54240;51.096;5.878;2022-10-20T00:29:42;11.86;118.99
67358;HTU21D;54240;51.096;5.878;2022-10-20T00:32:07;11.85;118.99
67358;HTU21D;54240;51.096;5.878;2022-10-20T00:34:33;11.85;118.99
67358;HTU21D;54240;51.096;5.878;2022-10-20T00:36:59;11.81;118.99
67358;HTU21D;54240;51.096;5.878;2022-10-20T00:39:25;11.81;118.99
67358;HTU21D;54240;51.096;5.878;2022-10-20T00:41:50;11.81;118.99
67358;HTU21D;54240;51.096;5.878;2022-10-20T00:44:50;11.78;118.99
67358;HTU21D;54240;51.096;5.878;2022-10-20T00:47:38;11.77;118.99
67358;HTU21D;54240;51.096;5.878;2022-10-20T00:50:11;11.77;118.99
67358;HTU21D;54240;51.096;5.878;2022-10-20T00:52:40;11.77;118.99
67358;HTU21D;54240;51.096;5.878;2022-10-20T00:55:09;11.76;118.99
67358;HTU21D;54240;51.096;5.878;2022-10-20T00:57:37;11.75;118.99
67358;HTU21D;54240;51.096;5.878;2022-10-20T01:00:05;11.75;118.99
67358;HTU21D;54240;51.096;5.878;2022-10-20T01:02:31;11.75;118.99
67358;HTU21D;54240;51.096;5.878;2022-10-20T01:04:57;11.72;118.99
67358;HTU21D;54240;51.096;5.878;2022-10-20T01:07:23;11.72;118.99
67358;HTU21D;54240;51.096;5.878;2022-10-20T01:09:49;11.72;118.99
67358;HTU21D;54240;51.096;5.878;2022-10-20T01:15:25;11.74;118.99
67358;HTU21D;54240;51.096;5.878;2022-10-20T01:18:46;11.75;118.99
67358;HTU21D;54240;51.096;5.878;2022-10-20T01:21:15;11.77;118.99
67358;HTU21D;54240;51.096;5.878;2022-10-20T01:23:54;11.76;118.99
67358;HTU21D;54240;51.096;5.878;2022-10-20T01:29:38;11.77;118.99
67358;HTU21D;54240;51.096;5.878;2022-10-20T01:35:09;11.78;118.99
67358;HTU21D;54240;51.096;5.878;2022-10-20T01:37:49;11.77;118.99
67358;HTU21D;54240;51.096;5.878;2022-10-20T01:42:51;11.83;118.99
67358;HTU21D;54240;51.096;5.878;2022-10-20T01:45:22;11.83;118.99
67358;HTU21D;54240;51.096;5.878;2022-10-20T01:47:50;11.82;118.99
67358;HTU21D;54240;51.096;5.878;2022-10-20T01:50:18;11.81;118.99
67358;HTU21D;54240;51.096;5.878;2022-10-20T01:52:46;11.84;118.99
67358;HTU21D;54240;51.096;5.878;2022-10-20T01:55:17;11.84;118.99
67358;HTU21D;54240;51.096;5.878;2022-10-20T02:00:38;11.86;118.99
67358;HTU21D;54240;51.096;5.878;2022-10-20T02:05:57;11.91;118.99
67358;HTU21D;54240;51.096;5.878;2022-10-20T02:08:42;11.88;118.99
67358;HTU21D;54240;51.096;5.878;2022-10-20T02:11:21;11.93;118.99
67358;HTU21D;54240;51.096;5.878;2022-10-20T02:13:51;11.93;118.99
67358;HTU21D;54240;51.096;5.878;2022-10-20T02:16:29;11.96;118.99
67358;HTU21D;54240;51.096;5.878;2022-10-20T02:18:58;11.96;118.99
67358;HTU21D;54240;51.096;5.878;2022-10-20T02:21:24;11.92;118.99
67358;HTU21D;54240;51.096;5.878;2022-10-20T02:23:52;11.92;118.99
67358;HTU21D;54240;51.096;5.878;2022-10-20T02:26:22;11.97;118.99
67358;HTU21D;54240;51.096;5.878;2022-10-20T02:28:58;12.00;118.99
67358;HTU21D;54240;51.096;5.878;2022-10-20T02:31:25;12.00;118.99
67358;HTU21D;54240;51.096;5.878;2022-10-20T02:33:54;12.01;118.99
67358;HTU21D;54240;51.096;5.878;2022-10-20T02:36:25;12.00;118.99
67358;HTU21D;54240;51.096;5.878;2022-10-20T02:38:52;12.02;118.99
67358;HTU21D;54240;51.096;5.878;2022-10-20T02:41:17;12.04;118.99
67358;HTU21D;54240;51.096;5.878;2022-10-20T02:43:43;12.01;118.99
67358;HTU21D;54240;51.096;5.878;2022-10-20T02:46:09;12.07;118.99
67358;HTU21D;54240;51.096;5.878;2022-10-20T02:48:35;12.10;118.99
67358;HTU21D;54240;51.096;5.878;2022-10-20T02:51:04;12.04;118.99
67358;HTU21D;54240;51.096;5.878;2022-10-20T02:53:31;12.13;118.99
67358;HTU21D;54240;51.096;5.878;2022-10-20T02:55:57;12.18;118.99
67358;HTU21D;54240;51.096;5.878;2022-10-20T02:58:24;12.15;118.99
67358;HTU21D;54240;51.096;5.878;2022-10-20T03:00:50;12.23;118.99
67358;HTU21D;54240;51.096;5.878;2022-10-20T03:03:17;12.26;118.99
67358;HTU21D;54240;51.096;5.878;2022-10-20T03:05:43;12.29;118.99
67358;HTU21D;54240;51.096;5.878;2022-10-20T03:08:10;12.31;118.99
67358;HTU21D;54240;51.096;5.878;2022-10-20T03:10:36;12.32;118.99
67358;HTU21D;54240;51.096;5.878;2022-10-20T03:13:06;12.35;118.99
67358;HTU21D;54240;51.096;5.878;2022-10-20T03:15:33;12.33;118.99
67358;HTU21D;54240;51.096;5.878;2022-10-20T03:17:59;12.40;118.99
67358;HTU21D;54240;51.096;5.878;2022-10-20T03:20:25;12.30;118.99
67358;HTU21D;54240;51.096;5.878;2022-10-20T03:22:51;12.42;118.99
67358;HTU21D;54240;51.096;5.878;2022-10-20T03:25:17;12.48;118.99
67358;HTU21D;54240;51.096;5.878;2022-10-20T03:27:43;12.47;118.99
67358;HTU21D;54240;51.096;5.878;2022-10-20T03:30:09;12.45;118.99
67358;HTU21D;54240;51.096;5.878;2022-10-20T03:32:35;12.53;118.99
67358;HTU21D;54240;51.096;5.878;2022-10-20T03:35:01;12.57;118.99
67358;HTU21D;54240;51.096;5.878;2022-10-20T03:37:27;12.56;118.99
67358;HTU21D;54240;51.096;5.878;2022-10-20T03:39:52;12.46;118.99
67358;HTU21D;54240;51.096;5.878;2022-10-20T03:42:18;12.47;118.99
67358;HTU21D;54240;51.096;5.878;2022-10-20T03:44:44;12.49;118.99
67358;HTU21D;54240;51.096;5.878;2022-10-20T03:47:11;12.47;118.99
67358;HTU21D;54240;51.096;5.878;2022-10-20T03:49:37;12.52;118.99
67358;HTU21D;54240;51.096;5.878;2022-10-20T03:52:04;12.46;118.99
67358;HTU21D;54240;51.096;5.878;2022-10-20T03:54:30;12.48;118.99
67358;HTU21D;54240;51.096;5.878;2022-10-20T03:56:56;12.49;118.99
67358;HTU21D;54240;51.096;5.878;2022-10-20T03:59:22;12.47;118.99
67358;HTU21D;54240;51.096;5.878;2022-10-20T04:01:48;12.40;118.99
67358;HTU21D;54240;51.096;5.878;2022-10-20T04:04:14;12.45;118.99
67358;HTU21D;54240;51.096;5.878;2022-10-20T04:06:40;12.53;118.99
67358;HTU21D;54240;51.096;5.878;2022-10-20T04:09:05;12.50;118.99
67358;HTU21D;54240;51.096;5.878;2022-10-20T04:11:32;12.52;118.99
67358;HTU21D;54240;51.096;5.878;2022-10-20T04:13:58;12.56;118.99
67358;HTU21D;54240;51.096;5.878;2022-10-20T04:16:24;12.51;118.99
67358;HTU21D;54240;51.096;5.878;2022-10-20T04:18:51;12.49;118.99
67358;HTU21D;54240;51.096;5.878;2022-10-20T04:21:17;12.53;118.99
67358;HTU21D;54240;51.096;5.878;2022-10-20T04:23:43;12.59;118.99
67358;HTU21D;54240;51.096;5.878;2022-10-20T04:26:14;12.53;118.99
67358;HTU21D;54240;51.096;5.878;2022-10-20T04:28:41;12.62;118.99
67358;HTU21D;54240;51.096;5.878;2022-10-20T04:31:08;12.58;118.99
67358;HTU21D;54240;51.096;5.878;2022-10-20T04:33:34;12.60;118.99
67358;HTU21D;54240;51.096;5.878;2022-10-20T04:36:06;12.61;118.99
67358;HTU21D;54240;51.096;5.878;2022-10-20T04:38:34;12.60;118.99
67358;HTU21D;54240;51.096;5.878;2022-10-20T04:41:03;12.50;118.99
67358;HTU21D;54240;51.096;5.878;2022-10-20T04:43:30;12.53;118.99
67358;HTU21D;54240;51.096;5.878;2022-10-20T04:46:04;12.44;118.99
67358;HTU21D;54240;51.096;5.878;2022-10-20T04:48:30;12.47;118.99
67358;HTU21D;54240;51.096;5.878;2022-10-20T04:51:07;12.41;118.99
67358;HTU21D;54240;51.096;5.878;2022-10-20T04:53:34;12.45;118.99
67358;HTU21D;54240;51.096;5.878;2022-10-20T04:56:01;12.41;118.99
67358;HTU21D;54240;51.096;5.878;2022-10-20T04:58:27;12.37;118.99
67358;HTU21D;54240;51.096;5.878;2022-10-20T05:00:53;12.28;118.99
67358;HTU21D;54240;51.096;5.878;2022-10-20T05:03:19;12.33;118.99
67358;HTU21D;54240;51.096;5.878;2022-10-20T05:05:46;12.37;118.99
67358;HTU21D;54240;51.096;5.878;2022-10-20T05:08:11;12.36;118.99
67358;HTU21D;54240;51.096;5.878;2022-10-20T05:10:37;12.31;118.99
67358;HTU21D;54240;51.096;5.878;2022-10-20T05:13:03;12.22;118.99
67358;HTU21D;54240;51.096;5.878;2022-10-20T05:15:29;12.26;118.99
67358;HTU21D;54240;51.096;5.878;2022-10-20T05:17:54;12.19;118.99
67358;HTU21D;54240;51.096;5.878;2022-10-20T05:20:20;12.19;118.99
67358;HTU21D;54240;51.096;5.878;2022-10-20T05:22:46;12.23;118.99
67358;HTU21D;54240;51.096;5.878;2022-10-20T05:25:12;12.22;118.99
67358;HTU21D;54240;51.096;5.878;2022-10-20T05:27:37;12.22;118.99
67358;HTU21D;54240;51.096;5.878;2022-10-20T05:30:03;12.18;118.99
67358;HTU21D;54240;51.096;5.878;2022-10-20T05:32:29;12.20;118.99
67358;HTU21D;54240;51.096;5.878;2022-10-20T05:34:55;12.19;118.99
67358;HTU21D;54240;51.096;5.878;2022-10-20T05:37:21;12.20;118.99
67358;HTU21D;54240;51.096;5.878;2022-10-20T05:39:47;12.21;118.99
67358;HTU21D;54240;51.096;5.878;2022-10-20T05:42:12;12.17;118.99
67358;HTU21D;54240;51.096;5.878;2022-10-20T05:44:38;12.20;118.99
67358;HTU21D;54240;51.096;5.878;2022-10-20T05:47:04;12.13;118.99
67358;HTU21D;54240;51.096;5.878;2022-10-20T05:49:30;12.07;118.99
67358;HTU21D;54240;51.096;5.878;2022-10-20T05:51:56;12.06;118.99
67358;HTU21D;54240;51.096;5.878;2022-10-20T05:54:21;12.14;118.99
67358;HTU21D;54240;51.096;5.878;2022-10-20T05:56:47;12.18;118.99
67358;HTU21D;54240;51.096;5.878;2022-10-20T05:59:13;12.14;118.99
67358;HTU21D;54240;51.096;5.878;2022-10-20T06:01:40;12.19;118.99
67358;HTU21D;54240;51.096;5.878;2022-10-20T06:04:16;12.19;118.99
67358;HTU21D;54240;51.096;5.878;2022-10-20T06:06:43;12.21;118.99
67358;HTU21D;54240;51.096;5.878;2022-10-20T06:09:10;12.21;118.99
67358;HTU21D;54240;51.096;5.878;2022-10-20T06:11:37;12.19;118.99
67358;HTU21D;54240;51.096;5.878;2022-10-20T06:14:03;12.20;118.99
67358;HTU21D;54240;51.096;5.878;2022-10-20T06:16:29;12.22;118.99
67358;HTU21D;54240;51.096;5.878;2022-10-20T06:18:57;12.21;118.99
67358;HTU21D;54240;51.096;5.878;2022-10-20T06:21:26;12.26;118.99
67358;HTU21D;54240;51.096;5.878;2022-10-20T06:23:53;12.27;118.99
67358;HTU21D;54240;51.096;5.878;2022-10-20T06:26:23;12.29;118.99
67358;HTU21D;54240;51.096;5.878;2022-10-20T06:28:53;12.33;118.99
67358;HTU21D;54240;51.096;5.878;2022-10-20T06:33:51;12.37;118.99
67358;HTU21D;54240;51.096;5.878;2022-10-20T06:36:18;12.43;118.99
67358;HTU21D;54240;51.096;5.878;2022-10-20T06:38:45;12.42;118.99
67358;HTU21D;54240;51.096;5.878;2022-10-20T06:41:15;12.46;118.99
67358;HTU21D;54240;51.096;5.878;2022-10-20T06:43:43;12.47;118.99
67358;HTU21D;54240;51.096;5.878;2022-10-20T06:46:16;12.53;118.99
67358;HTU21D;54240;51.096;5.878;2022-10-20T06:48:42;12.57;118.99
67358;HTU21D;54240;51.096;5.878;2022-10-20T06:51:18;12.63;118.99
67358;HTU21D;54240;51.096;5.878;2022-10-20T06:53:47;12.66;118.99
67358;HTU21D;54240;51.096;5.878;2022-10-20T06:56:19;12.67;118.99
67358;HTU21D;54240;51.096;5.878;2022-10-20T06:58:48;12.61;118.99
67358;HTU21D;54240;51.096;5.878;2022-10-20T07:01:20;12.58;118.99
67358;HTU21D;54240;51.096;5.878;2022-10-20T07:03:48;12.58;118.99
67358;HTU21D;54240;51.096;5.878;2022-10-20T07:06:19;12.57;118.99
67358;HTU21D;54240;51.096;5.878;2022-10-20T07:08:46;12.56;118.99
67358;HTU21D;54240;51.096;5.878;2022-10-20T07:11:15;12.61;118.99
67358;HTU21D;54240;51.096;5.878;2022-10-20T07:13:42;12.65;118.99
67358;HTU21D;54240;51.096;5.878;2022-10-20T07:16:12;12.71;118.99
67358;HTU21D;54240;51.096;5.878;2022-10-20T07:18:38;12.75;118.99
67358;HTU21D;54240;51.096;5.878;2022-10-20T07:21:08;12.79;118.99
67358;HTU21D;54240;51.096;5.878;2022-10-20T07:23:35;12.82;118.99
67358;HTU21D;54240;51.096;5.878;2022-10-20T07:28:30;13.04;118.99
67358;HTU21D;54240;51.096;5.878;2022-10-20T07:30:56;13.09;118.99
67358;HTU21D;54240;51.096;5.878;2022-10-20T07:33:23;13.17;118.99
67358;HTU21D;54240;51.096;5.878;2022-10-20T07:35:49;13.25;118.99
67358;HTU21D;54240;51.096;5.878;2022-10-20T07:38:15;13.36;118.99
67358;HTU21D;54240;51.096;5.878;2022-10-20T07:40:41;13.46;118.99
67358;HTU21D;54240;51.096;5.878;2022-10-20T07:43:06;13.58;118.99
67358;HTU21D;54240;51.096;5.878;2022-10-20T07:45:32;13.65;118.99
67358;HTU21D;54240;51.096;5.878;2022-10-20T07:47:58;13.74;118.99
67358;HTU21D;54240;51.096;5.878;2022-10-20T07:50:24;13.82;118.99
67358;HTU21D;54240;51.096;5.878;2022-10-20T07:52:51;13.85;118.99
67358;HTU21D;54240;51.096;5.878;2022-10-20T07:55:17;13.80;118.99
67358;HTU21D;54240;51.096;5.878;2022-10-20T07:57:44;13.82;118.99
67358;HTU21D;54240;51.096;5.878;2022-10-20T08:00:10;13.78;118.99
67358;HTU21D;54240;51.096;5.878;2022-10-20T08:02:37;13.92;118.99
67358;HTU21D;54240;51.096;5.878;2022-10-20T08:05:06;14.01;118.99
67358;HTU21D;54240;51.096;5.878;2022-10-20T08:07:32;14.21;118.99
67358;HTU21D;54240;51.096;5.878;2022-10-20T08:09:58;14.37;118.99
67358;HTU21D;54240;51.096;5.878;2022-10-20T08:12:24;14.52;118.99
67358;HTU21D;54240;51.096;5.878;2022-10-20T08:14:49;14.74;118.99
67358;HTU21D;54240;51.096;5.878;2022-10-20T08:17:17;14.88;118.99
67358;HTU21D;54240;51.096;5.878;2022-10-20T08:19:43;15.07;118.99
67358;HTU21D;54240;51.096;5.878;2022-10-20T08:22:09;15.26;118.99
67358;HTU21D;54240;51.096;5.878;2022-10-20T08:24:35;15.32;118.99
67358;HTU21D;54240;51.096;5.878;2022-10-20T08:27:01;15.32;118.99
67358;HTU21D;54240;51.096;5.878;2022-10-20T08:29:27;15.24;118.99
67358;HTU21D;54240;51.096;5.878;2022-10-20T08:31:53;15.16;118.99
67358;HTU21D;54240;51.096;5.878;2022-10-20T08:34:18;15.11;118.99
67358;HTU21D;54240;51.096;5.878;2022-10-20T08:36:44;15.04;118.99
67358;HTU21D;54240;51.096;5.878;2022-10-20T08:39:10;14.93;118.99
67358;HTU21D;54240;51.096;5.878;2022-10-20T08:41:44;14.89;118.99
67358;HTU21D;54240;51.096;5.878;2022-10-20T08:44:20;14.89;118.99
67358;HTU21D;54240;51.096;5.878;2022-10-20T08:46:47;14.92;118.99
67358;HTU21D;54240;51.096;5.878;2022-10-20T08:49:26;14.93;118.99
67358;HTU21D;54240;51.096;5.878;2022-10-20T08:51:54;14.98;118.99
67358;HTU21D;54240;51.096;5.878;2022-10-20T08:54:20;15.03;118.99
67358;HTU21D;54240;51.096;5.878;2022-10-20T08:56:46;15.09;118.99
67358;HTU21D;54240;51.096;5.878;2022-10-20T09:01:51;15.28;118.99
67358;HTU21D;54240;51.096;5.878;2022-10-20T09:04:33;15.37;118.99
67358;HTU21D;54240;51.096;5.878;2022-10-20T09:07:20;15.41;118.99
67358;HTU21D;54240;51.096;5.878;2022-10-20T09:09:47;15.54;118.99
67358;HTU21D;54240;51.096;5.878;2022-10-20T09:12:14;15.70;118.99
67358;HTU21D;54240;51.096;5.878;2022-10-20T09:14:40;15.77;118.99
67358;HTU21D;54240;51.096;5.878;2022-10-20T09:17:14;15.78;118.99
67358;HTU21D;54240;51.096;5.878;2022-10-20T09:19:53;15.77;118.99
67358;HTU21D;54240;51.096;5.878;2022-10-20T09:22:20;15.77;118.99
67358;HTU21D;54240;51.096;5.878;2022-10-20T09:24:48;15.61;118.99
67358;HTU21D;54240;51.096;5.878;2022-10-20T09:27:19;15.42;118.99
67358;HTU21D;54240;51.096;5.878;2022-10-20T09:29:46;15.14;118.99
67358;HTU21D;54240;51.096;5.878;2022-10-20T09:32:18;14.85;118.99
67358;HTU21D;54240;51.096;5.878;2022-10-20T09:34:44;14.70;118.99
67358;HTU21D;54240;51.096;5.878;2022-10-20T09:37:13;14.63;118.99
67358;HTU21D;54240;51.096;5.878;2022-10-20T09:39:50;14.57;118.99
67358;HTU21D;54240;51.096;5.878;2022-10-20T09:44:57;14.24;118.99
67358;HTU21D;54240;51.096;5.878;2022-10-20T09:47:26;14.24;118.99
67358;HTU21D;54240;51.096;5.878;2022-10-20T09:50:05;14.27;118.99
67358;HTU21D;54240;51.096;5.878;2022-10-20T09:52:36;14.42;118.99
67358;HTU21D;54240;51.096;5.878;2022-10-20T09:57:50;14.60;118.99
67358;HTU21D;54240;51.096;5.878;2022-10-20T10:00:35;14.52;118.99
67358;HTU21D;54240;51.096;5.878;2022-10-20T10:03:13;14.49;118.99
67358;HTU21D;54240;51.096;5.878;2022-10-20T10:08:16;14.45;118.99
67358;HTU21D;54240;51.096;5.878;2022-10-20T10:10:44;14.51;118.99
67358;HTU21D;54240;51.096;5.878;2022-10-20T10:13:22;14.67;118.99
67358;HTU21D;54240;51.096;5.878;2022-10-20T10:15:59;14.78;118.99
67358;HTU21D;54240;51.096;5.878;2022-10-20T10:18:25;14.94;118.99
67358;HTU21D;54240;51.096;5.878;2022-10-20T10:21:13;15.04;118.99
67358;HTU21D;54240;51.096;5.878;2022-10-20T10:23:59;15.13;118.99
67358;HTU21D;54240;51.096;5.878;2022-10-20T10:29:33;15.16;118.99
67358;HTU21D;54240;51.096;5.878;2022-10-20T10:32:46;15.19;118.99
67358;HTU21D;54240;51.096;5.878;2022-10-20T10:35:11;15.27;118.99
67358;HTU21D;54240;51.096;5.878;2022-10-20T10:37:44;15.29;118.99
67358;HTU21D;54240;51.096;5.878;2022-10-20T10:40:20;15.26;118.99
67358;HTU21D;54240;51.096;5.878;2022-10-20T10:48:24;14.97;118.99
67358;HTU21D;54240;51.096;5.878;2022-10-20T10:50:57;14.95;118.99
67358;HTU21D;54240;51.096;5.878;2022-10-20T10:58:57;14.83;118.99
67358;HTU21D;54240;51.096;5.878;2022-10-20T11:07:07;14.53;118.99
67358;HTU21D;54240;51.096;5.878;2022-10-20T11:12:51;14.42;118.99
67358;HTU21D;54240;51.096;5.878;2022-10-20T11:15:54;14.29;118.99
67358;HTU21D;54240;51.096;5.878;2022-10-20T11:27:07;13.78;118.99
67358;HTU21D;54240;51.096;5.878;2022-10-20T11:32:29;13.85;118.99
67358;HTU21D;54240;51.096;5.878;2022-10-20T11:37:29;13.90;118.99
67358;HTU21D;54240;51.096;5.878;2022-10-20T11:42:58;13.97;118.99
67358;HTU21D;54240;51.096;5.878;2022-10-20T11:45:34;14.08;118.99
67358;HTU21D;54240;51.096;5.878;2022-10-20T11:48:13;14.11;118.99
67358;HTU21D;54240;51.096;5.878;2022-10-20T11:50:49;14.13;118.99
67358;HTU21D;54240;51.096;5.878;2022-10-20T11:53:33;14.23;118.99
67358;HTU21D;54240;51.096;5.878;2022-10-20T11:56:20;14.23;118.99
67358;HTU21D;54240;51.096;5.878;2022-10-20T12:09:59;15.49;118.99
67358;HTU21D;54240;51.096;5.878;2022-10-20T12:12:50;16.63;118.99
67358;HTU21D;54240;51.096;5.878;2022-10-20T12:15:23;17.04;118.99
67358;HTU21D;54240;51.096;5.878;2022-10-20T12:17:52;16.93;118.99
67358;HTU21D;54240;51.096;5.878;2022-10-20T12:22:47;16.50;118.99
67358;HTU21D;54240;51.096;5.878;2022-10-20T12:30:59;16.08;118.99
67358;HTU21D;54240;51.096;5.878;2022-10-20T12:33:45;16.19;118.99
67358;HTU21D;54240;51.096;5.878;2022-10-20T12:36:30;16.27;118.99
67358;HTU21D;54240;51.096;5.878;2022-10-20T12:39:16;16.27;118.99
67358;HTU21D;54240;51.096;5.878;2022-10-20T12:41:55;16.48;118.99
67358;HTU21D;54240;51.096;5.878;2022-10-20T12:44:22;16.63;118.99
67358;HTU21D;54240;51.096;5.878;2022-10-20T12:47:02;16.59;118.99
67358;HTU21D;54240;51.096;5.878;2022-10-20T12:49:39;16.47;118.99
67358;HTU21D;54240;51.096;5.878;2022-10-20T12:52:19;16.47;118.99
67358;HTU21D;54240;51.096;5.878;2022-10-20T12:54:55;16.44;118.99
67358;HTU21D;54240;51.096;5.878;2022-10-20T12:57:31;16.59;118.99
67358;HTU21D;54240;51.096;5.878;2022-10-20T13:00:58;16.69;118.99
67358;HTU21D;54240;51.096;5.878;2022-10-20T13:02:55;17.03;118.99
67358;HTU21D;54240;51.096;5.878;2022-10-20T13:05:40;17.41;118.99
67358;HTU21D;54240;51.096;5.878;2022-10-20T13:10:42;18.12;118.99
67358;HTU21D;54240;51.096;5.878;2022-10-20T13:20:57;18.24;118.99
67358;HTU21D;54240;51.096;5.878;2022-10-20T13:23:28;18.39;118.99
67358;HTU21D;54240;51.096;5.878;2022-10-20T13:26:27;18.55;118.99
67358;HTU21D;54240;51.096;5.878;2022-10-20T13:28:54;18.63;118.99
67358;HTU21D;54240;51.096;5.878;2022-10-20T13:51:22;19.80;118.99
67358;HTU21D;54240;51.096;5.878;2022-10-20T13:53:56;19.96;118.99
67358;HTU21D;54240;51.096;5.878;2022-10-20T13:56:32;20.02;118.99
67358;HTU21D;54240;51.096;5.878;2022-10-20T13:59:05;19.94;118.99
67358;HTU21D;54240;51.096;5.878;2022-10-20T14:01:50;19.98;118.99
67358;HTU21D;54240;51.096;5.878;2022-10-20T14:04:33;20.02;118.99
67358;HTU21D;54240;51.096;5.878;2022-10-20T14:07:10;20.07;118.99
67358;HTU21D;54240;51.096;5.878;2022-10-20T14:09:42;20.16;118.99
67358;HTU21D;54240;51.096;5.878;2022-10-20T14:12:22;20.20;118.99
67358;HTU21D;54240;51.096;5.878;2022-10-20T14:14:48;20.17;118.99
67358;HTU21D;54240;51.096;5.878;2022-10-20T14:17:20;20.16;118.99
67358;HTU21D;54240;51.096;5.878;2022-10-20T14:19:47;20.21;118.99
67358;HTU21D;54240;51.096;5.878;2022-10-20T14:24:55;20.34;118.99
67358;HTU21D;54240;51.096;5.878;2022-10-20T14:27:25;20.34;118.99
67358;HTU21D;54240;51.096;5.878;2022-10-20T14:29:52;20.34;118.99
67358;HTU21D;54240;51.096;5.878;2022-10-20T14:32:24;20.34;118.99
67358;HTU21D;54240;51.096;5.878;2022-10-20T14:40:26;20.16;118.99
67358;HTU21D;54240;51.096;5.878;2022-10-20T14:43:01;20.10;118.99
67358;HTU21D;54240;51.096;5.878;2022-10-20T14:45:28;20.10;118.99
67358;HTU21D;54240;51.096;5.878;2022-10-20T14:47:57;20.19;118.99
67358;HTU21D;54240;51.096;5.878;2022-10-20T14:50:36;20.26;118.99
67358;HTU21D;54240;51.096;5.878;2022-10-20T14:53:34;20.35;118.99
67358;HTU21D;54240;51.096;5.878;2022-10-20T14:56:01;20.32;118.99
67358;HTU21D;54240;51.096;5.878;2022-10-20T14:58:32;20.21;118.99
67358;HTU21D;54240;51.096;5.878;2022-10-20T15:01:24;20.17;118.99
67358;HTU21D;54240;51.096;5.878;2022-10-20T15:04:23;20.13;118.99
67358;HTU21D;54240;51.096;5.878;2022-10-20T15:06:49;20.06;118.99
67358;HTU21D;54240;51.096;5.878;2022-10-20T15:09:29;20.16;118.99
67358;HTU21D;54240;51.096;5.878;2022-10-20T15:11:56;20.16;118.99
67358;HTU21D;54240;51.096;5.878;2022-10-20T15:14:22;20.21;118.99
67358;HTU21D;54240;51.096;5.878;2022-10-20T15:16:48;20.24;118.99
67358;HTU21D;54240;51.096;5.878;2022-10-20T15:22:00;20.25;118.99
67358;HTU21D;54240;51.096;5.878;2022-10-20T15:24:28;20.14;118.99
67358;HTU21D;54240;51.096;5.878;2022-10-20T15:26:55;19.91;118.99
67358;HTU21D;54240;51.096;5.878;2022-10-20T15:29:20;19.76;118.99
67358;HTU21D;54240;51.096;5.878;2022-10-20T15:31:46;19.68;118.99
67358;HTU21D;54240;51.096;5.878;2022-10-20T15:34:12;19.63;118.99
67358;HTU21D;54240;51.096;5.878;2022-10-20T15:36:38;19.66;118.99
67358;HTU21D;54240;51.096;5.878;2022-10-20T15:39:04;19.65;118.99
67358;HTU21D;54240;51.096;5.878;2022-10-20T15:41:32;19.69;118.99
67358;HTU21D;54240;51.096;5.878;2022-10-20T15:46:40;19.77;118.99
67358;HTU21D;54240;51.096;5.878;2022-10-20T15:49:06;19.72;118.99
67358;HTU21D;54240;51.096;5.878;2022-10-20T15:51:34;19.62;118.99
67358;HTU21D;54240;51.096;5.878;2022-10-20T15:54:01;19.48;118.99
67358;HTU21D;54240;51.096;5.878;2022-10-20T15:56:27;19.32;118.99
67358;HTU21D;54240;51.096;5.878;2022-10-20T15:58:53;19.16;118.99
67358;HTU21D;54240;51.096;5.878;2022-10-20T16:01:20;18.96;118.99
67358;HTU21D;54240;51.096;5.878;2022-10-20T16:03:47;18.82;118.99
67358;HTU21D;54240;51.096;5.878;2022-10-20T16:06:15;18.72;118.99
67358;HTU21D;54240;51.096;5.878;2022-10-20T16:08:43;18.55;118.99
67358;HTU21D;54240;51.096;5.878;2022-10-20T16:11:11;18.41;118.99
67358;HTU21D;54240;51.096;5.878;2022-10-20T16:13:38;18.26;118.99
67358;HTU21D;54240;51.096;5.878;2022-10-20T16:16:10;18.17;118.99
67358;HTU21D;54240;51.096;5.878;2022-10-20T16:18:37;18.03;118.99
67358;HTU21D;54240;51.096;5.878;2022-10-20T16:21:04;17.88;118.99
67358;HTU21D;54240;51.096;5.878;2022-10-20T16:23:31;17.73;118.99
67358;HTU21D;54240;51.096;5.878;2022-10-20T16:25:58;17.59;118.99
67358;HTU21D;54240;51.096;5.878;2022-10-20T16:28:24;17.48;118.99
67358;HTU21D;54240;51.096;5.878;2022-10-20T16:31:00;17.36;118.99
67358;HTU21D;54240;51.096;5.878;2022-10-20T16:33:27;17.26;118.99
67358;HTU21D;54240;51.096;5.878;2022-10-20T16:35:53;17.17;118.99
67358;HTU21D;54240;51.096;5.878;2022-10-20T16:38:18;17.09;118.99
67358;HTU21D;54240;51.096;5.878;2022-10-20T16:40:59;16.99;118.99
67358;HTU21D;54240;51.096;5.878;2022-10-20T16:43:25;16.93;118.99
67358;HTU21D;54240;51.096;5.878;2022-10-20T16:45:51;16.86;118.99
67358;HTU21D;54240;51.096;5.878;2022-10-20T16:48:17;16.80;118.99
67358;HTU21D;54240;51.096;5.878;2022-10-20T16:50:43;16.74;118.99
67358;HTU21D;54240;51.096;5.878;2022-10-20T16:53:09;16.70;118.99
67358;HTU21D;54240;51.096;5.878;2022-10-20T16:55:35;16.67;118.99
67358;HTU21D;54240;51.096;5.878;2022-10-20T16:58:00;16.64;118.99
67358;HTU21D;54240;51.096;5.878;2022-10-20T17:00:26;16.62;118.99
67358;HTU21D;54240;51.096;5.878;2022-10-20T17:02:52;16.62;118.99
67358;HTU21D;54240;51.096;5.878;2022-10-20T17:05:21;16.59;118.99
67358;HTU21D;54240;51.096;5.878;2022-10-20T17:07:47;16.57;118.99
67358;HTU21D;54240;51.096;5.878;2022-10-20T17:10:14;16.56;118.99
67358;HTU21D;54240;51.096;5.878;2022-10-20T17:12:40;16.50;118.99
67358;HTU21D;54240;51.096;5.878;2022-10-20T17:15:06;16.45;118.99
67358;HTU21D;54240;51.096;5.878;2022-10-20T17:17:32;16.41;118.99
67358;HTU21D;54240;51.096;5.878;2022-10-20T17:19:57;16.34;118.99
67358;HTU21D;54240;51.096;5.878;2022-10-20T17:22:23;16.29;118.99
67358;HTU21D;54240;51.096;5.878;2022-10-20T17:24:49;16.25;118.99
67358;HTU21D;54240;51.096;5.878;2022-10-20T17:27:15;16.18;118.99
67358;HTU21D;54240;51.096;5.878;2022-10-20T17:29:41;16.13;118.99
67358;HTU21D;54240;51.096;5.878;2022-10-20T17:32:07;16.10;118.99
67358;HTU21D;54240;51.096;5.878;2022-10-20T17:34:33;16.05;118.99